sensor_id;sensor_type;location;lat;lon;timestamp;pressure;altitude;pressure_sealevel;temperature;humidity
3968;BME280;9221;42.646;23.380;2023-02-10T00:01:06;96260.00;;;-4.04;66.10
3968;BME280;9221;42.646;23.380;2023-02-10T00:03:33;96269.53;;;-4.10;66.83
3968;BME280;9221;42.646;23.380;2023-02-10T00:05:59;96284.06;;;-4.05;66.56
3968;BME280;9221;42.646;23.380;2023-02-10T00:08:24;96205.53;;;-4.40;66.83
3968;BME280;9221;42.646;23.380;2023-02-10T00:10:50;96270.16;;;-3.95;66.66
3968;BME280;9221;42.646;23.380;2023-02-10T00:13:15;96265.06;;;-3.98;66.80
3968;BME280;9221;42.646;23.380;2023-02-10T00:15:41;96278.78;;;-3.96;66.86
3968;BME280;9221;42.646;23.380;2023-02-10T00:18:06;96196.88;;;-4.36;67.12
3968;BME280;9221;42.646;23.380;2023-02-10T00:20:32;96276.34;;;-4.07;67.63
3968;BME280;9221;42.646;23.380;2023-02-10T00:22:57;96325.47;;;-4.21;68.30
3968;BME280;9221;42.646;23.380;2023-02-10T00:25:23;96270.44;;;-4.14;68.13
3968;BME280;9221;42.646;23.380;2023-02-10T00:27:48;96304.78;;;-4.15;67.76
3968;BME280;9221;42.646;23.380;2023-02-10T00:30:14;96197.97;;;-4.54;67.62
3968;BME280;9221;42.646;23.380;2023-02-10T00:32:39;96275.94;;;-4.45;68.12
3968;BME280;9221;42.646;23.380;2023-02-10T00:35:08;96320.91;;;-4.77;69.03
3968;BME280;9221;42.646;23.380;2023-02-10T00:37:34;96266.22;;;-4.97;68.83
3968;BME280;9221;42.646;23.380;2023-02-10T00:39:59;96264.47;;;-4.95;68.50
3968;BME280;9221;42.646;23.380;2023-02-10T00:42:24;96285.28;;;-5.20;69.41
3968;BME280;9221;42.646;23.380;2023-02-10T00:44:50;96193.00;;;-5.51;69.31
3968;BME280;9221;42.646;23.380;2023-02-10T00:47:15;96252.63;;;-5.12;69.20
3968;BME280;9221;42.646;23.380;2023-02-10T00:49:41;96285.16;;;-5.07;69.36
3968;BME280;9221;42.646;23.380;2023-02-10T00:52:06;96252.56;;;-5.05;69.85
3968;BME280;9221;42.646;23.380;2023-02-10T00:54:32;96369.91;;;-4.94;69.32
3968;BME280;9221;42.646;23.380;2023-02-10T00:56:57;96186.00;;;-5.36;68.98
3968;BME280;9221;42.646;23.380;2023-02-10T00:59:22;96248.25;;;-5.02;69.06
3968;BME280;9221;42.646;23.380;2023-02-10T01:01:48;96175.00;;;-5.52;69.71
3968;BME280;9221;42.646;23.380;2023-02-10T01:04:13;96243.97;;;-5.04;69.22
3968;BME280;9221;42.646;23.380;2023-02-10T01:06:39;96241.41;;;-5.06;69.23
3968;BME280;9221;42.646;23.380;2023-02-10T01:09:05;96234.63;;;-5.12;68.81
3968;BME280;9221;42.646;23.380;2023-02-10T01:11:30;96257.88;;;-5.24;69.15
3968;BME280;9221;42.646;23.380;2023-02-10T01:13:56;96262.19;;;-5.24;69.00
3968;BME280;9221;42.646;23.380;2023-02-10T01:16:21;96315.38;;;-5.36;69.92
3968;BME280;9221;42.646;23.380;2023-02-10T01:18:47;96240.03;;;-5.41;69.89
3968;BME280;9221;42.646;23.380;2023-02-10T01:21:18;96156.63;;;-6.07;70.69
3968;BME280;9221;42.646;23.380;2023-02-10T01:23:44;96231.63;;;-5.60;70.91
3968;BME280;9221;42.646;23.380;2023-02-10T01:26:11;96220.56;;;-5.68;71.20
3968;BME280;9221;42.646;23.380;2023-02-10T01:28:38;96153.19;;;-6.03;70.86
3968;BME280;9221;42.646;23.380;2023-02-10T01:31:05;96227.53;;;-5.86;70.68
3968;BME280;9221;42.646;23.380;2023-02-10T01:33:31;96150.63;;;-6.01;70.35
3968;BME280;9221;42.646;23.380;2023-02-10T01:35:56;96259.03;;;-5.57;70.26
3968;BME280;9221;42.646;23.380;2023-02-10T01:38:21;96193.97;;;-5.63;70.12
3968;BME280;9221;42.646;23.380;2023-02-10T01:40:48;96221.19;;;-5.43;69.69
3968;BME280;9221;42.646;23.380;2023-02-10T01:43:15;96205.03;;;-5.56;69.67
3968;BME280;9221;42.646;23.380;2023-02-10T01:45:40;96215.25;;;-5.47;69.44
3968;BME280;9221;42.646;23.380;2023-02-10T01:48:08;96210.25;;;-5.65;69.98
3968;BME280;9221;42.646;23.380;2023-02-10T01:50:42;96208.50;;;-5.63;69.56
3968;BME280;9221;42.646;23.380;2023-02-10T01:53:09;96210.28;;;-5.68;69.94
3968;BME280;9221;42.646;23.380;2023-02-10T01:55:36;96137.97;;;-6.29;71.11
3968;BME280;9221;42.646;23.380;2023-02-10T01:58:07;96135.41;;;-6.26;70.45
3968;BME280;9221;42.646;23.380;2023-02-10T02:00:34;96203.56;;;-5.88;70.75
3968;BME280;9221;42.646;23.380;2023-02-10T02:03:00;96192.72;;;-6.24;71.68
3968;BME280;9221;42.646;23.380;2023-02-10T02:05:38;96185.06;;;-6.33;72.16
3968;BME280;9221;42.646;23.380;2023-02-10T02:08:19;96179.94;;;-6.33;72.37
3968;BME280;9221;42.646;23.380;2023-02-10T02:10:58;96182.47;;;-6.30;72.23
3968;BME280;9221;42.646;23.380;2023-02-10T02:13:39;96204.75;;;-6.34;72.50
3968;BME280;9221;42.646;23.380;2023-02-10T02:16:15;96179.88;;;-6.24;72.54
3968;BME280;9221;42.646;23.380;2023-02-10T02:19:02;96160.31;;;-6.42;72.60
3968;BME280;9221;42.646;23.380;2023-02-10T02:27:03;96163.66;;;-6.32;72.95
3968;BME280;9221;42.646;23.380;2023-02-10T02:32:14;96250.84;;;-6.15;72.79
3968;BME280;9221;42.646;23.380;2023-02-10T02:37:15;96179.84;;;-6.21;73.09
3968;BME280;9221;42.646;23.380;2023-02-10T02:39:42;96193.59;;;-6.28;73.02
3968;BME280;9221;42.646;23.380;2023-02-10T02:42:28;96188.69;;;-6.68;73.17
3968;BME280;9221;42.646;23.380;2023-02-10T02:58:33;96166.19;;;-6.24;73.84
3968;BME280;9221;42.646;23.380;2023-02-10T03:01:10;96171.38;;;-6.32;74.34
3968;BME280;9221;42.646;23.380;2023-02-10T03:03:36;96028.16;;;-7.09;74.25
3968;BME280;9221;42.646;23.380;2023-02-10T03:06:03;96091.88;;;-6.41;73.12
3968;BME280;9221;42.646;23.380;2023-02-10T03:08:30;96161.00;;;-6.14;73.00
3968;BME280;9221;42.646;23.380;2023-02-10T03:10:56;96199.59;;;-6.26;73.17
3968;BME280;9221;42.646;23.380;2023-02-10T03:13:22;96161.09;;;-6.26;73.61
3968;BME280;9221;42.646;23.380;2023-02-10T03:15:47;96155.84;;;-6.17;73.45
3968;BME280;9221;42.646;23.380;2023-02-10T03:18:13;96145.72;;;-6.32;73.81
3968;BME280;9221;42.646;23.380;2023-02-10T03:20:39;96096.22;;;-6.53;73.95
3968;BME280;9221;42.646;23.380;2023-02-10T03:23:04;96169.47;;;-6.02;73.46
3968;BME280;9221;42.646;23.380;2023-02-10T03:25:30;96161.78;;;-6.07;72.77
3968;BME280;9221;42.646;23.380;2023-02-10T03:27:55;96126.81;;;-6.22;73.83
3968;BME280;9221;42.646;23.380;2023-02-10T03:30:21;96210.53;;;-5.99;73.35
3968;BME280;9221;42.646;23.380;2023-02-10T03:32:46;96167.72;;;-6.00;73.69
3968;BME280;9221;42.646;23.380;2023-02-10T03:35:14;95984.56;;;-7.02;73.59
3968;BME280;9221;42.646;23.380;2023-02-10T03:37:39;96179.56;;;-5.84;73.02
3968;BME280;9221;42.646;23.380;2023-02-10T03:40:05;96159.09;;;-5.96;73.16
3968;BME280;9221;42.646;23.380;2023-02-10T03:42:30;96179.44;;;-5.67;73.27
3968;BME280;9221;42.646;23.380;2023-02-10T03:44:56;96187.28;;;-5.85;73.28
3968;BME280;9221;42.646;23.380;2023-02-10T03:47:21;96162.44;;;-5.82;73.65
3968;BME280;9221;42.646;23.380;2023-02-10T03:49:46;96190.63;;;-5.75;73.67
3968;BME280;9221;42.646;23.380;2023-02-10T03:52:12;96077.19;;;-6.24;73.99
3968;BME280;9221;42.646;23.380;2023-02-10T03:54:37;96183.66;;;-5.59;73.98
3968;BME280;9221;42.646;23.380;2023-02-10T03:57:03;96145.19;;;-5.70;74.20
3968;BME280;9221;42.646;23.380;2023-02-10T03:59:28;96071.13;;;-6.15;74.79
3968;BME280;9221;42.646;23.380;2023-02-10T04:01:53;96169.91;;;-5.57;74.76
3968;BME280;9221;42.646;23.380;2023-02-10T04:04:19;96136.50;;;-5.57;74.54
3968;BME280;9221;42.646;23.380;2023-02-10T04:06:44;96074.28;;;-5.87;74.11
3968;BME280;9221;42.646;23.380;2023-02-10T04:09:09;96160.56;;;-5.67;74.74
3968;BME280;9221;42.646;23.380;2023-02-10T04:11:35;96069.47;;;-6.21;75.40
3968;BME280;9221;42.646;23.380;2023-02-10T04:14:00;96152.19;;;-5.85;75.68
3968;BME280;9221;42.646;23.380;2023-02-10T04:16:26;96146.97;;;-5.79;76.62
3968;BME280;9221;42.646;23.380;2023-02-10T04:18:53;96126.31;;;-5.66;76.50
3968;BME280;9221;42.646;23.380;2023-02-10T04:21:19;96189.81;;;-5.84;75.62
3968;BME280;9221;42.646;23.380;2023-02-10T04:23:45;96114.41;;;-5.73;74.86
3968;BME280;9221;42.646;23.380;2023-02-10T04:26:10;96145.63;;;-5.27;74.80
3968;BME280;9221;42.646;23.380;2023-02-10T04:28:36;96046.19;;;-6.01;74.18
3968;BME280;9221;42.646;23.380;2023-02-10T04:31:01;96140.03;;;-5.67;75.50
3968;BME280;9221;42.646;23.380;2023-02-10T04:33:28;96077.16;;;-6.18;75.60
3968;BME280;9221;42.646;23.380;2023-02-10T04:35:53;96084.03;;;-6.23;75.82
3968;BME280;9221;42.646;23.380;2023-02-10T04:38:20;96178.69;;;-5.78;76.32
3968;BME280;9221;42.646;23.380;2023-02-10T04:40:45;96148.16;;;-6.15;76.27
3968;BME280;9221;42.646;23.380;2023-02-10T04:43:11;96169.44;;;-5.99;76.61
3968;BME280;9221;42.646;23.380;2023-02-10T04:45:37;96191.69;;;-5.98;76.73
3968;BME280;9221;42.646;23.380;2023-02-10T04:48:03;96155.56;;;-5.81;76.91
3968;BME280;9221;42.646;23.380;2023-02-10T04:50:29;96148.78;;;-5.90;76.54
3968;BME280;9221;42.646;23.380;2023-02-10T04:52:55;96200.91;;;-5.75;76.57
3968;BME280;9221;42.646;23.380;2023-02-10T04:55:20;96075.53;;;-6.28;76.69
3968;BME280;9221;42.646;23.380;2023-02-10T04:57:46;96153.94;;;-5.90;77.16
3968;BME280;9221;42.646;23.380;2023-02-10T05:00:12;96179.75;;;-6.05;77.07
3968;BME280;9221;42.646;23.380;2023-02-10T05:02:37;96153.19;;;-6.03;77.09
3968;BME280;9221;42.646;23.380;2023-02-10T05:05:03;96154.19;;;-6.21;76.82
3968;BME280;9221;42.646;23.380;2023-02-10T05:07:29;96210.66;;;-6.18;77.08
3968;BME280;9221;42.646;23.380;2023-02-10T05:09:54;96103.81;;;-6.33;77.04
3968;BME280;9221;42.646;23.380;2023-02-10T05:12:20;96079.09;;;-6.48;76.14
3968;BME280;9221;42.646;23.380;2023-02-10T05:14:45;96177.97;;;-5.97;76.15
3968;BME280;9221;42.646;23.380;2023-02-10T05:17:10;96029.81;;;-6.96;75.31
3968;BME280;9221;42.646;23.380;2023-02-10T05:19:36;96082.59;;;-6.61;75.38
3968;BME280;9221;42.646;23.380;2023-02-10T05:22:01;96184.06;;;-6.10;74.66
3968;BME280;9221;42.646;23.380;2023-02-10T05:24:27;96184.97;;;-6.15;75.02
3968;BME280;9221;42.646;23.380;2023-02-10T05:26:52;96128.91;;;-6.84;73.64
3968;BME280;9221;42.646;23.380;2023-02-10T05:29:17;96303.94;;;-6.26;73.99
3968;BME280;9221;42.646;23.380;2023-02-10T05:31:43;96111.75;;;-6.74;72.90
3968;BME280;9221;42.646;23.380;2023-02-10T05:34:08;96279.13;;;-6.23;73.39
3968;BME280;9221;42.646;23.380;2023-02-10T05:36:34;96175.78;;;-6.59;73.03
3968;BME280;9221;42.646;23.380;2023-02-10T05:38:59;96126.31;;;-6.80;73.10
3968;BME280;9221;42.646;23.380;2023-02-10T05:41:43;96275.91;;;-6.74;73.07
3968;BME280;9221;42.646;23.380;2023-02-10T05:44:08;96318.56;;;-6.46;73.97
3968;BME280;9221;42.646;23.380;2023-02-10T05:46:34;96200.56;;;-6.52;74.06
3968;BME280;9221;42.646;23.380;2023-02-10T05:48:59;96218.47;;;-6.38;73.61
3968;BME280;9221;42.646;23.380;2023-02-10T05:51:25;96143.31;;;-6.65;74.62
3968;BME280;9221;42.646;23.380;2023-02-10T05:53:50;96266.25;;;-6.15;74.00
3968;BME280;9221;42.646;23.380;2023-02-10T05:56:16;96224.31;;;-6.16;73.63
3968;BME280;9221;42.646;23.380;2023-02-10T05:58:41;96256.09;;;-6.41;72.88
3968;BME280;9221;42.646;23.380;2023-02-10T06:01:08;96266.41;;;-6.52;72.70
3968;BME280;9221;42.646;23.380;2023-02-10T06:03:34;96152.09;;;-7.20;72.61
3968;BME280;9221;42.646;23.380;2023-02-10T06:05:59;96229.66;;;-6.56;72.85
3968;BME280;9221;42.646;23.380;2023-02-10T06:08:25;96251.06;;;-6.63;72.17
3968;BME280;9221;42.646;23.380;2023-02-10T06:10:51;96238.28;;;-6.78;73.15
3968;BME280;9221;42.646;23.380;2023-02-10T06:13:17;96222.13;;;-7.07;74.74
3968;BME280;9221;42.646;23.380;2023-02-10T06:15:42;96293.03;;;-6.95;74.48
3968;BME280;9221;42.646;23.380;2023-02-10T06:18:07;96217.03;;;-7.11;75.05
3968;BME280;9221;42.646;23.380;2023-02-10T06:20:33;96222.16;;;-7.13;75.71
3968;BME280;9221;42.646;23.380;2023-02-10T06:22:58;96238.31;;;-6.82;75.25
3968;BME280;9221;42.646;23.380;2023-02-10T06:25:23;96251.88;;;-6.55;74.89
3968;BME280;9221;42.646;23.380;2023-02-10T06:27:49;96291.22;;;-6.53;73.71
3968;BME280;9221;42.646;23.380;2023-02-10T06:30:15;96219.41;;;-6.54;74.13
3968;BME280;9221;42.646;23.380;2023-02-10T06:32:40;96171.59;;;-6.75;73.33
3968;BME280;9221;42.646;23.380;2023-02-10T06:35:06;96253.47;;;-6.23;73.42
3968;BME280;9221;42.646;23.380;2023-02-10T06:37:31;96244.97;;;-6.37;73.23
3968;BME280;9221;42.646;23.380;2023-02-10T06:39:57;96234.69;;;-6.31;73.99
3968;BME280;9221;42.646;23.380;2023-02-10T06:42:22;96159.56;;;-6.61;73.41
3968;BME280;9221;42.646;23.380;2023-02-10T06:44:47;96212.34;;;-6.14;73.59
3968;BME280;9221;42.646;23.380;2023-02-10T06:47:13;96225.97;;;-6.02;72.61
3968;BME280;9221;42.646;23.380;2023-02-10T06:49:38;96138.91;;;-6.42;72.44
3968;BME280;9221;42.646;23.380;2023-02-10T06:52:04;96264.16;;;-5.57;71.74
3968;BME280;9221;42.646;23.380;2023-02-10T06:54:29;96247.94;;;-5.67;71.54
3968;BME280;9221;42.646;23.380;2023-02-10T06:56:55;96264.13;;;-5.54;71.56
3968;BME280;9221;42.646;23.380;2023-02-10T06:59:20;96120.28;;;-6.69;71.25
3968;BME280;9221;42.646;23.380;2023-02-10T07:01:46;96395.06;;;-5.36;71.51
3968;BME280;9221;42.646;23.380;2023-02-10T07:04:12;96237.59;;;-5.58;71.78
3968;BME280;9221;42.646;23.380;2023-02-10T07:06:38;96335.19;;;-5.49;71.72
3968;BME280;9221;42.646;23.380;2023-02-10T07:09:05;96289.38;;;-4.97;71.34
3968;BME280;9221;42.646;23.380;2023-02-10T07:11:31;96193.50;;;-5.13;70.63
3968;BME280;9221;42.646;23.380;2023-02-10T07:13:57;96308.75;;;-4.61;70.27
3968;BME280;9221;42.646;23.380;2023-02-10T07:16:23;96287.09;;;-4.43;69.53
3968;BME280;9221;42.646;23.380;2023-02-10T07:18:48;96188.50;;;-4.51;69.04
3968;BME280;9221;42.646;23.380;2023-02-10T07:21:14;96152.59;;;-4.60;68.84
3968;BME280;9221;42.646;23.380;2023-02-10T07:23:39;96283.47;;;-3.62;67.26
3968;BME280;9221;42.646;23.380;2023-02-10T07:26:05;96183.09;;;-3.75;66.53
3968;BME280;9221;42.646;23.380;2023-02-10T07:28:31;96233.47;;;-3.52;65.25
3968;BME280;9221;42.646;23.380;2023-02-10T07:30:56;96175.50;;;-3.81;66.19
3968;BME280;9221;42.646;23.380;2023-02-10T07:33:21;96242.72;;;-2.87;65.53
3968;BME280;9221;42.646;23.380;2023-02-10T07:35:47;96206.97;;;-3.09;64.79
3968;BME280;9221;42.646;23.380;2023-02-10T07:38:12;96290.00;;;-2.40;63.40
3968;BME280;9221;42.646;23.380;2023-02-10T07:40:38;96239.50;;;-2.55;61.95
3968;BME280;9221;42.646;23.380;2023-02-10T07:43:03;96240.38;;;-2.13;61.84
3968;BME280;9221;42.646;23.380;2023-02-10T07:45:29;96236.28;;;-1.81;61.05
3968;BME280;9221;42.646;23.380;2023-02-10T07:47:57;96222.28;;;-1.73;60.49
3968;BME280;9221;42.646;23.380;2023-02-10T07:50:23;96231.56;;;-0.93;59.45
3968;BME280;9221;42.646;23.380;2023-02-10T07:52:48;96188.63;;;-0.69;57.74
3968;BME280;9221;42.646;23.380;2023-02-10T07:55:14;96247.09;;;-0.27;57.35
3968;BME280;9221;42.646;23.380;2023-02-10T07:57:39;96179.88;;;-0.33;55.29
3968;BME280;9221;42.646;23.380;2023-02-10T08:00:07;96233.31;;;0.30;54.42
3968;BME280;9221;42.646;23.380;2023-02-10T08:02:32;96206.63;;;-0.03;54.58
3968;BME280;9221;42.646;23.380;2023-02-10T08:04:58;96231.84;;;0.77;52.85
3968;BME280;9221;42.646;23.380;2023-02-10T08:07:24;96187.31;;;0.89;51.36
3968;BME280;9221;42.646;23.380;2023-02-10T08:09:49;96150.97;;;1.13;49.99
3968;BME280;9221;42.646;23.380;2023-02-10T08:12:15;96246.91;;;1.93;48.80
3968;BME280;9221;42.646;23.380;2023-02-10T08:14:40;96248.16;;;2.07;48.06
3968;BME280;9221;42.646;23.380;2023-02-10T08:17:06;96264.91;;;2.23;48.89
3968;BME280;9221;42.646;23.380;2023-02-10T08:19:31;96184.44;;;2.39;47.75
3968;BME280;9221;42.646;23.380;2023-02-10T08:21:57;96237.50;;;3.01;46.12
3968;BME280;9221;42.646;23.380;2023-02-10T08:24:22;96271.78;;;3.13;45.61
3968;BME280;9221;42.646;23.380;2023-02-10T08:26:48;96189.88;;;2.98;45.50
3968;BME280;9221;42.646;23.380;2023-02-10T08:29:13;96236.25;;;3.32;45.19
3968;BME280;9221;42.646;23.380;2023-02-10T08:31:39;96301.22;;;3.37;44.82
3968;BME280;9221;42.646;23.380;2023-02-10T08:34:04;96264.25;;;3.27;44.47
3968;BME280;9221;42.646;23.380;2023-02-10T08:36:30;96282.31;;;3.73;44.07
3968;BME280;9221;42.646;23.380;2023-02-10T08:38:56;96238.09;;;4.10;43.19
3968;BME280;9221;42.646;23.380;2023-02-10T08:41:21;96273.19;;;4.42;42.67
3968;BME280;9221;42.646;23.380;2023-02-10T08:43:47;96286.16;;;4.44;42.23
3968;BME280;9221;42.646;23.380;2023-02-10T08:46:12;96170.63;;;4.19;42.05
3968;BME280;9221;42.646;23.380;2023-02-10T08:48:38;96252.75;;;4.69;41.74
3968;BME280;9221;42.646;23.380;2023-02-10T08:51:10;96320.75;;;4.87;40.64
3968;BME280;9221;42.646;23.380;2023-02-10T08:53:36;96257.06;;;4.88;40.64
3968;BME280;9221;42.646;23.380;2023-02-10T08:56:09;96287.44;;;4.54;40.83
3968;BME280;9221;42.646;23.380;2023-02-10T08:58:35;96225.47;;;3.40;42.57
3968;BME280;9221;42.646;23.380;2023-02-10T09:01:00;96219.63;;;4.33;42.31
3968;BME280;9221;42.646;23.380;2023-02-10T09:03:27;96226.97;;;4.98;41.60
3968;BME280;9221;42.646;23.380;2023-02-10T09:05:53;96195.59;;;5.33;41.04
3968;BME280;9221;42.646;23.380;2023-02-10T09:08:18;96223.88;;;5.60;39.55
3968;BME280;9221;42.646;23.380;2023-02-10T09:10:44;96039.84;;;4.77;39.37
3968;BME280;9221;42.646;23.380;2023-02-10T09:13:10;96199.38;;;5.79;38.65
3968;BME280;9221;42.646;23.380;2023-02-10T09:15:37;96212.88;;;6.04;38.60
3968;BME280;9221;42.646;23.380;2023-02-10T09:18:04;96222.97;;;6.28;37.76
3968;BME280;9221;42.646;23.380;2023-02-10T09:20:29;96138.63;;;6.05;37.56
3968;BME280;9221;42.646;23.380;2023-02-10T09:22:55;96210.53;;;6.48;37.82
3968;BME280;9221;42.646;23.380;2023-02-10T09:25:20;96216.78;;;6.61;37.37
3968;BME280;9221;42.646;23.380;2023-02-10T09:27:47;96215.41;;;6.86;36.86
3968;BME280;9221;42.646;23.380;2023-02-10T09:30:12;96141.88;;;6.57;36.90
3968;BME280;9221;42.646;23.380;2023-02-10T09:32:38;96192.41;;;6.91;36.57
3968;BME280;9221;42.646;23.380;2023-02-10T09:35:03;96135.94;;;6.69;36.68
3968;BME280;9221;42.646;23.380;2023-02-10T09:37:29;96142.19;;;6.83;36.59
3968;BME280;9221;42.646;23.380;2023-02-10T09:39:54;96184.88;;;7.45;36.34
3968;BME280;9221;42.646;23.380;2023-02-10T09:42:29;96205.31;;;7.55;35.80
3968;BME280;9221;42.646;23.380;2023-02-10T09:45:15;96189.56;;;7.98;35.47
3968;BME280;9221;42.646;23.380;2023-02-10T09:47:59;96150.81;;;7.87;35.20
3968;BME280;9221;42.646;23.380;2023-02-10T09:50:40;96217.72;;;7.96;34.52
3968;BME280;9221;42.646;23.380;2023-02-10T09:55:40;96130.41;;;7.78;34.57
3968;BME280;9221;42.646;23.380;2023-02-10T09:58:33;96180.56;;;8.31;34.65
3968;BME280;9221;42.646;23.380;2023-02-10T10:04:00;96168.72;;;8.24;34.44
3968;BME280;9221;42.646;23.380;2023-02-10T10:06:32;96101.88;;;8.83;33.24
3968;BME280;9221;42.646;23.380;2023-02-10T10:09:02;96156.81;;;9.66;33.00
3968;BME280;9221;42.646;23.380;2023-02-10T10:11:45;96153.56;;;9.75;32.48
3968;BME280;9221;42.646;23.380;2023-02-10T10:27:55;96137.72;;;9.11;32.96
3968;BME280;9221;42.646;23.380;2023-02-10T10:30:43;96123.13;;;8.79;32.44
3968;BME280;9221;42.646;23.380;2023-02-10T10:35:47;95989.19;;;7.96;32.10
3968;BME280;9221;42.646;23.380;2023-02-10T10:38:25;96087.47;;;8.48;33.55
3968;BME280;9221;42.646;23.380;2023-02-10T10:41:00;96159.06;;;8.24;33.66
3968;BME280;9221;42.646;23.380;2023-02-10T10:43:30;96142.47;;;7.95;33.60
3968;BME280;9221;42.646;23.380;2023-02-10T10:46:11;96121.13;;;5.40;37.56
3968;BME280;9221;42.646;23.380;2023-02-10T10:48:40;96116.31;;;4.09;41.04
3968;BME280;9221;42.646;23.380;2023-02-10T10:51:06;96109.59;;;3.66;42.19
3968;BME280;9221;42.646;23.380;2023-02-10T10:56:12;96138.28;;;3.06;43.93
3968;BME280;9221;42.646;23.380;2023-02-10T10:58:42;96095.25;;;2.97;44.09
3968;BME280;9221;42.646;23.380;2023-02-10T11:01:10;96012.16;;;2.29;44.13
3968;BME280;9221;42.646;23.380;2023-02-10T11:03:35;96134.69;;;3.09;44.25
3968;BME280;9221;42.646;23.380;2023-02-10T11:06:08;96032.75;;;2.56;44.73
3968;BME280;9221;42.646;23.380;2023-02-10T11:08:37;96089.78;;;3.22;44.21
3968;BME280;9221;42.646;23.380;2023-02-10T11:11:07;96022.72;;;3.07;44.07
3968;BME280;9221;42.646;23.380;2023-02-10T11:13:37;96111.66;;;3.58;43.11
3968;BME280;9221;42.646;23.380;2023-02-10T11:16:04;96086.78;;;3.51;42.99
3968;BME280;9221;42.646;23.380;2023-02-10T11:18:32;96162.19;;;3.76;42.91
3968;BME280;9221;42.646;23.380;2023-02-10T11:21:08;96101.38;;;3.74;42.75
3968;BME280;9221;42.646;23.380;2023-02-10T11:24:23;96085.03;;;3.51;42.96
3968;BME280;9221;42.646;23.380;2023-02-10T11:26:57;96060.63;;;3.52;42.95
3968;BME280;9221;42.646;23.380;2023-02-10T11:29:23;96100.72;;;3.50;42.69
3968;BME280;9221;42.646;23.380;2023-02-10T11:31:51;96019.06;;;3.11;43.06
3968;BME280;9221;42.646;23.380;2023-02-10T11:36:46;96068.25;;;3.57;43.03
3968;BME280;9221;42.646;23.380;2023-02-10T11:39:35;96106.34;;;3.61;43.03
3968;BME280;9221;42.646;23.380;2023-02-10T11:42:28;96065.56;;;3.78;42.97
3968;BME280;9221;42.646;23.380;2023-02-10T11:47:32;96058.50;;;3.61;43.55
3968;BME280;9221;42.646;23.380;2023-02-10T11:49:57;96093.97;;;3.65;42.89
3968;BME280;9221;42.646;23.380;2023-02-10T11:52:26;96054.84;;;3.46;43.21
3968;BME280;9221;42.646;23.380;2023-02-10T11:54:54;95991.28;;;3.29;43.12
3968;BME280;9221;42.646;23.380;2023-02-10T12:00:31;95997.38;;;3.11;42.55
3968;BME280;9221;42.646;23.380;2023-02-10T12:05:52;96045.91;;;3.32;43.54
3968;BME280;9221;42.646;23.380;2023-02-10T12:14:27;96031.59;;;3.60;43.20
3968;BME280;9221;42.646;23.380;2023-02-10T12:17:13;96022.22;;;3.56;43.10
3968;BME280;9221;42.646;23.380;2023-02-10T12:22:27;96022.28;;;3.73;42.70
3968;BME280;9221;42.646;23.380;2023-02-10T12:25:15;96055.06;;;3.60;41.96
3968;BME280;9221;42.646;23.380;2023-02-10T12:27:59;96050.41;;;3.67;42.58
3968;BME280;9221;42.646;23.380;2023-02-10T12:52:42;95930.00;;;3.20;42.30
3968;BME280;9221;42.646;23.380;2023-02-10T13:00:27;96005.44;;;3.98;41.57
3968;BME280;9221;42.646;23.380;2023-02-10T13:03:07;96006.97;;;4.02;41.59
3968;BME280;9221;42.646;23.380;2023-02-10T13:05:42;95948.28;;;3.57;41.54
3968;BME280;9221;42.646;23.380;2023-02-10T13:08:14;95984.31;;;3.85;41.55
3968;BME280;9221;42.646;23.380;2023-02-10T13:10:46;96036.16;;;4.11;41.03
3968;BME280;9221;42.646;23.380;2023-02-10T13:15:53;95939.91;;;3.87;40.67
3968;BME280;9221;42.646;23.380;2023-02-10T13:18:30;96005.75;;;4.10;40.75
3968;BME280;9221;42.646;23.380;2023-02-10T13:21:11;96040.28;;;3.97;40.64
3968;BME280;9221;42.646;23.380;2023-02-10T13:23:51;96006.34;;;3.97;40.81
3968;BME280;9221;42.646;23.380;2023-02-10T13:26:41;96001.59;;;4.05;40.11
3968;BME280;9221;42.646;23.380;2023-02-10T13:34:29;96006.59;;;3.93;39.66
3968;BME280;9221;42.646;23.380;2023-02-10T13:37:14;95986.19;;;4.01;39.97
3968;BME280;9221;42.646;23.380;2023-02-10T13:39:58;95902.63;;;3.48;40.09
3968;BME280;9221;42.646;23.380;2023-02-10T13:45:17;95990.25;;;4.24;40.08
3968;BME280;9221;42.646;23.380;2023-02-10T13:53:05;95988.34;;;4.10;39.48
3968;BME280;9221;42.646;23.380;2023-02-10T13:55:43;95987.66;;;4.24;39.82
3968;BME280;9221;42.646;23.380;2023-02-10T14:00:44;96000.84;;;4.21;39.59
3968;BME280;9221;42.646;23.380;2023-02-10T14:08:37;96068.78;;;4.02;40.03
3968;BME280;9221;42.646;23.380;2023-02-10T14:13:40;96002.69;;;4.54;39.74
3968;BME280;9221;42.646;23.380;2023-02-10T14:18:38;95997.94;;;4.45;39.25
3968;BME280;9221;42.646;23.380;2023-02-10T14:21:09;95978.41;;;4.34;39.57
3968;BME280;9221;42.646;23.380;2023-02-10T14:23:37;95968.22;;;4.30;39.53
3968;BME280;9221;42.646;23.380;2023-02-10T14:26:07;96020.06;;;4.37;39.15
3968;BME280;9221;42.646;23.380;2023-02-10T14:28:38;95980.81;;;4.39;39.56
3968;BME280;9221;42.646;23.380;2023-02-10T14:31:17;95931.03;;;4.07;39.29
3968;BME280;9221;42.646;23.380;2023-02-10T14:33:55;95984.72;;;4.30;39.87
3968;BME280;9221;42.646;23.380;2023-02-10T14:36:21;96032.88;;;4.24;39.79
3968;BME280;9221;42.646;23.380;2023-02-10T14:38:52;95978.59;;;4.31;39.61
3968;BME280;9221;42.646;23.380;2023-02-10T14:41:19;95974.16;;;4.33;39.22
3968;BME280;9221;42.646;23.380;2023-02-10T14:43:45;95987.31;;;4.48;38.75
3968;BME280;9221;42.646;23.380;2023-02-10T14:46:18;95928.53;;;4.05;39.34
3968;BME280;9221;42.646;23.380;2023-02-10T14:48:44;95989.69;;;4.52;39.39
3968;BME280;9221;42.646;23.380;2023-02-10T14:51:21;95957.16;;;4.42;39.55
3968;BME280;9221;42.646;23.380;2023-02-10T14:53:47;95976.03;;;4.12;40.00
3968;BME280;9221;42.646;23.380;2023-02-10T14:56:26;95918.56;;;3.79;40.88
3968;BME280;9221;42.646;23.380;2023-02-10T14:58:53;95914.72;;;3.86;41.12
3968;BME280;9221;42.646;23.380;2023-02-10T15:01:28;96019.44;;;4.32;40.73
3968;BME280;9221;42.646;23.380;2023-02-10T15:03:55;95984.88;;;4.27;41.56
3968;BME280;9221;42.646;23.380;2023-02-10T15:06:24;95925.63;;;3.94;42.16
3968;BME280;9221;42.646;23.380;2023-02-10T15:08:54;95979.28;;;4.17;42.46
3968;BME280;9221;42.646;23.380;2023-02-10T15:11:41;96016.19;;;4.10;42.90
3968;BME280;9221;42.646;23.380;2023-02-10T15:14:34;95984.41;;;4.01;43.48
3968;BME280;9221;42.646;23.380;2023-02-10T15:17:05;96028.16;;;3.96;43.05
3968;BME280;9221;42.646;23.380;2023-02-10T15:19:31;96000.81;;;3.86;43.03
3968;BME280;9221;42.646;23.380;2023-02-10T15:21:56;96080.25;;;3.61;42.75
3968;BME280;9221;42.646;23.380;2023-02-10T15:26:48;95999.44;;;3.79;43.41
3968;BME280;9221;42.646;23.380;2023-02-10T15:29:15;96025.38;;;3.82;43.18